sensor_id;sensor_type;location;lat;lon;timestamp;temperature;humidity
38941;DHT22;43236;47.208;7.518;2023-04-03T00:02:06;11.60;99.90
38941;DHT22;43236;47.208;7.518;2023-04-03T00:04:53;11.60;99.90
38941;DHT22;43236;47.208;7.518;2023-04-03T00:07:40;11.50;99.90
38941;DHT22;43236;47.208;7.518;2023-04-03T00:10:27;11.60;99.90
38941;DHT22;43236;47.208;7.518;2023-04-03T00:13:16;11.50;99.90
38941;DHT22;43236;47.208;7.518;2023-04-03T00:16:04;11.50;99.90
38941;DHT22;43236;47.208;7.518;2023-04-03T00:18:52;11.30;99.90
38941;DHT22;43236;47.208;7.518;2023-04-03T00:21:39;11.30;99.90
38941;DHT22;43236;47.208;7.518;2023-04-03T00:24:27;11.20;99.90
38941;DHT22;43236;47.208;7.518;2023-04-03T00:27:14;11.20;99.90
38941;DHT22;43236;47.208;7.518;2023-04-03T00:30:01;11.20;99.90
38941;DHT22;43236;47.208;7.518;2023-04-03T00:32:49;11.40;99.90
38941;DHT22;43236;47.208;7.518;2023-04-03T00:35:38;11.20;99.90
38941;DHT22;43236;47.208;7.518;2023-04-03T00:38:25;11.20;99.90
38941;DHT22;43236;47.208;7.518;2023-04-03T00:41:12;11.20;99.90
38941;DHT22;43236;47.208;7.518;2023-04-03T00:43:59;11.20;99.90
38941;DHT22;43236;47.208;7.518;2023-04-03T00:46:46;11.10;99.90
38941;DHT22;43236;47.208;7.518;2023-04-03T00:49:33;11.10;99.90
38941;DHT22;43236;47.208;7.518;2023-04-03T00:52:25;11.10;99.90
38941;DHT22;43236;47.208;7.518;2023-04-03T00:55:13;11.00;99.90
38941;DHT22;43236;47.208;7.518;2023-04-03T00:58:01;11.00;99.90
38941;DHT22;43236;47.208;7.518;2023-04-03T01:00:53;11.00;99.90
38941;DHT22;43236;47.208;7.518;2023-04-03T01:03:43;10.90;99.90
38941;DHT22;43236;47.208;7.518;2023-04-03T01:06:33;10.90;99.90
38941;DHT22;43236;47.208;7.518;2023-04-03T01:09:22;10.90;99.90
38941;DHT22;43236;47.208;7.518;2023-04-03T01:12:13;10.90;99.90
38941;DHT22;43236;47.208;7.518;2023-04-03T01:15:05;11.00;99.90
38941;DHT22;43236;47.208;7.518;2023-04-03T01:17:54;11.00;99.90
38941;DHT22;43236;47.208;7.518;2023-04-03T01:24:33;11.00;99.90
38941;DHT22;43236;47.208;7.518;2023-04-03T01:27:20;11.00;99.90
38941;DHT22;43236;47.208;7.518;2023-04-03T01:30:08;11.00;99.90
38941;DHT22;43236;47.208;7.518;2023-04-03T01:32:57;10.90;99.90
38941;DHT22;43236;47.208;7.518;2023-04-03T01:35:44;10.90;99.90
38941;DHT22;43236;47.208;7.518;2023-04-03T01:38:31;10.90;99.90
38941;DHT22;43236;47.208;7.518;2023-04-03T01:41:19;10.90;99.90
38941;DHT22;43236;47.208;7.518;2023-04-03T01:44:08;10.90;99.90
38941;DHT22;43236;47.208;7.518;2023-04-03T01:46:55;10.90;99.90
38941;DHT22;43236;47.208;7.518;2023-04-03T01:49:43;10.90;99.90
38941;DHT22;43236;47.208;7.518;2023-04-03T01:52:30;10.80;99.90
38941;DHT22;43236;47.208;7.518;2023-04-03T01:55:17;10.80;99.90
38941;DHT22;43236;47.208;7.518;2023-04-03T01:58:05;10.70;99.90
38941;DHT22;43236;47.208;7.518;2023-04-03T02:00:52;10.70;99.90
38941;DHT22;43236;47.208;7.518;2023-04-03T02:03:40;10.60;99.90
38941;DHT22;43236;47.208;7.518;2023-04-03T02:06:28;10.60;99.90
38941;DHT22;43236;47.208;7.518;2023-04-03T02:09:15;10.60;99.90
38941;DHT22;43236;47.208;7.518;2023-04-03T02:12:02;10.50;99.90
38941;DHT22;43236;47.208;7.518;2023-04-03T02:14:49;10.40;99.90
38941;DHT22;43236;47.208;7.518;2023-04-03T02:17:36;10.40;99.90
38941;DHT22;43236;47.208;7.518;2023-04-03T02:20:23;10.30;99.90
38941;DHT22;43236;47.208;7.518;2023-04-03T02:23:12;10.30;99.90
38941;DHT22;43236;47.208;7.518;2023-04-03T02:26:06;10.30;99.90
38941;DHT22;43236;47.208;7.518;2023-04-03T02:28:54;10.30;99.90
38941;DHT22;43236;47.208;7.518;2023-04-03T02:31:41;10.20;99.90
38941;DHT22;43236;47.208;7.518;2023-04-03T02:34:28;10.20;99.90
38941;DHT22;43236;47.208;7.518;2023-04-03T02:37:15;10.20;99.90
38941;DHT22;43236;47.208;7.518;2023-04-03T02:40:05;10.20;99.90
38941;DHT22;43236;47.208;7.518;2023-04-03T02:42:52;10.20;99.90
38941;DHT22;43236;47.208;7.518;2023-04-03T02:45:39;10.20;99.90
38941;DHT22;43236;47.208;7.518;2023-04-03T02:48:26;10.20;99.90
38941;DHT22;43236;47.208;7.518;2023-04-03T02:51:14;10.10;99.90
38941;DHT22;43236;47.208;7.518;2023-04-03T02:54:01;10.10;99.90
38941;DHT22;43236;47.208;7.518;2023-04-03T02:56:49;10.10;99.90
38941;DHT22;43236;47.208;7.518;2023-04-03T02:59:36;10.10;99.90
38941;DHT22;43236;47.208;7.518;2023-04-03T03:02:26;10.00;99.90
38941;DHT22;43236;47.208;7.518;2023-04-03T03:05:13;10.00;99.90
38941;DHT22;43236;47.208;7.518;2023-04-03T03:08:00;10.00;99.90
38941;DHT22;43236;47.208;7.518;2023-04-03T03:10:47;10.00;99.90
38941;DHT22;43236;47.208;7.518;2023-04-03T03:13:36;9.90;99.90
38941;DHT22;43236;47.208;7.518;2023-04-03T03:16:23;9.90;99.90
38941;DHT22;43236;47.208;7.518;2023-04-03T03:19:10;9.80;99.90
38941;DHT22;43236;47.208;7.518;2023-04-03T03:21:57;9.80;99.90
38941;DHT22;43236;47.208;7.518;2023-04-03T03:24:44;9.70;99.90
38941;DHT22;43236;47.208;7.518;2023-04-03T03:27:31;9.70;99.90
38941;DHT22;43236;47.208;7.518;2023-04-03T03:30:19;9.70;99.90
38941;DHT22;43236;47.208;7.518;2023-04-03T03:33:06;9.70;99.90
38941;DHT22;43236;47.208;7.518;2023-04-03T03:35:54;9.70;99.90
38941;DHT22;43236;47.208;7.518;2023-04-03T03:38:41;9.80;99.90
38941;DHT22;43236;47.208;7.518;2023-04-03T03:41:28;9.80;99.90
38941;DHT22;43236;47.208;7.518;2023-04-03T03:44:15;9.80;99.90
38941;DHT22;43236;47.208;7.518;2023-04-03T03:47:03;9.80;99.90
38941;DHT22;43236;47.208;7.518;2023-04-03T03:49:51;9.70;99.90
38941;DHT22;43236;47.208;7.518;2023-04-03T03:52:38;9.60;99.90
38941;DHT22;43236;47.208;7.518;2023-04-03T03:55:25;9.60;99.90
38941;DHT22;43236;47.208;7.518;2023-04-03T03:58:12;9.50;99.90
38941;DHT22;43236;47.208;7.518;2023-04-03T04:01:00;9.50;99.90
38941;DHT22;43236;47.208;7.518;2023-04-03T04:03:49;9.40;99.90
38941;DHT22;43236;47.208;7.518;2023-04-03T04:06:36;9.40;99.90
38941;DHT22;43236;47.208;7.518;2023-04-03T04:09:23;9.40;99.90
38941;DHT22;43236;47.208;7.518;2023-04-03T04:12:10;9.30;99.90
38941;DHT22;43236;47.208;7.518;2023-04-03T04:14:57;9.30;99.90
38941;DHT22;43236;47.208;7.518;2023-04-03T04:17:45;9.30;99.90
38941;DHT22;43236;47.208;7.518;2023-04-03T04:20:33;9.30;99.90
38941;DHT22;43236;47.208;7.518;2023-04-03T04:23:20;9.20;99.90
38941;DHT22;43236;47.208;7.518;2023-04-03T04:26:07;9.20;99.90
38941;DHT22;43236;47.208;7.518;2023-04-03T04:28:54;9.20;99.90
38941;DHT22;43236;47.208;7.518;2023-04-03T04:31:41;9.10;99.90
38941;DHT22;43236;47.208;7.518;2023-04-03T04:34:28;9.10;99.90
38941;DHT22;43236;47.208;7.518;2023-04-03T04:37:17;9.00;99.90
38941;DHT22;43236;47.208;7.518;2023-04-03T04:40:04;9.00;99.90
38941;DHT22;43236;47.208;7.518;2023-04-03T04:42:52;9.00;99.90
38941;DHT22;43236;47.208;7.518;2023-04-03T04:45:39;9.00;99.90
38941;DHT22;43236;47.208;7.518;2023-04-03T04:48:26;9.00;99.90
38941;DHT22;43236;47.208;7.518;2023-04-03T04:51:13;8.90;99.90
38941;DHT22;43236;47.208;7.518;2023-04-03T04:54:02;8.90;99.90
38941;DHT22;43236;47.208;7.518;2023-04-03T04:56:49;8.80;99.90
38941;DHT22;43236;47.208;7.518;2023-04-03T04:59:36;8.80;99.90
38941;DHT22;43236;47.208;7.518;2023-04-03T05:02:23;8.80;99.90
38941;DHT22;43236;47.208;7.518;2023-04-03T05:05:10;8.80;99.90
38941;DHT22;43236;47.208;7.518;2023-04-03T05:07:57;8.70;99.90
38941;DHT22;43236;47.208;7.518;2023-04-03T05:10:46;8.70;99.90
38941;DHT22;43236;47.208;7.518;2023-04-03T05:13:33;8.60;99.90
38941;DHT22;43236;47.208;7.518;2023-04-03T05:16:20;8.70;99.90
38941;DHT22;43236;47.208;7.518;2023-04-03T05:19:07;8.70;99.90
38941;DHT22;43236;47.208;7.518;2023-04-03T05:21:54;8.80;99.90
38941;DHT22;43236;47.208;7.518;2023-04-03T05:24:41;8.80;99.90
38941;DHT22;43236;47.208;7.518;2023-04-03T05:27:29;8.90;99.90
38941;DHT22;43236;47.208;7.518;2023-04-03T05:30:17;8.90;99.90
38941;DHT22;43236;47.208;7.518;2023-04-03T05:33:04;9.00;99.90
38941;DHT22;43236;47.208;7.518;2023-04-03T05:35:51;9.00;99.90
38941;DHT22;43236;47.208;7.518;2023-04-03T05:38:39;9.00;99.50
38941;DHT22;43236;47.208;7.518;2023-04-03T05:41:26;8.90;99.50
38941;DHT22;43236;47.208;7.518;2023-04-03T05:44:15;8.90;99.50
38941;DHT22;43236;47.208;7.518;2023-04-03T05:47:02;8.80;99.30
38941;DHT22;43236;47.208;7.518;2023-04-03T05:49:49;8.80;99.60
38941;DHT22;43236;47.208;7.518;2023-04-03T05:52:37;8.80;99.00
38941;DHT22;43236;47.208;7.518;2023-04-03T05:55:25;8.80;99.30
38941;DHT22;43236;47.208;7.518;2023-04-03T05:58:12;8.80;99.30
38941;DHT22;43236;47.208;7.518;2023-04-03T06:01:00;8.90;99.40
38941;DHT22;43236;47.208;7.518;2023-04-03T06:03:47;8.90;99.40
38941;DHT22;43236;47.208;7.518;2023-04-03T06:06:46;8.90;99.10
38941;DHT22;43236;47.208;7.518;2023-04-03T06:09:33;8.90;98.80
38941;DHT22;43236;47.208;7.518;2023-04-03T06:12:21;8.90;98.90
38941;DHT22;43236;47.208;7.518;2023-04-03T06:15:09;8.90;98.70
38941;DHT22;43236;47.208;7.518;2023-04-03T06:17:58;8.80;98.70
38941;DHT22;43236;47.208;7.518;2023-04-03T06:20:45;8.80;98.70
38941;DHT22;43236;47.208;7.518;2023-04-03T06:23:32;8.80;98.70
38941;DHT22;43236;47.208;7.518;2023-04-03T06:26:20;8.80;98.50
38941;DHT22;43236;47.208;7.518;2023-04-03T06:29:08;8.80;98.40
38941;DHT22;43236;47.208;7.518;2023-04-03T06:31:55;8.80;98.50
38941;DHT22;43236;47.208;7.518;2023-04-03T06:34:44;8.80;98.30
38941;DHT22;43236;47.208;7.518;2023-04-03T06:37:32;8.80;98.20
38941;DHT22;43236;47.208;7.518;2023-04-03T06:40:22;8.80;98.00
38941;DHT22;43236;47.208;7.518;2023-04-03T06:43:09;8.70;98.10
38941;DHT22;43236;47.208;7.518;2023-04-03T06:45:57;8.70;97.90
38941;DHT22;43236;47.208;7.518;2023-04-03T06:48:44;8.70;98.10
38941;DHT22;43236;47.208;7.518;2023-04-03T06:51:33;8.80;98.00
38941;DHT22;43236;47.208;7.518;2023-04-03T06:54:21;8.70;97.90
38941;DHT22;43236;47.208;7.518;2023-04-03T06:57:08;8.80;98.10
38941;DHT22;43236;47.208;7.518;2023-04-03T06:59:55;8.80;98.40
38941;DHT22;43236;47.208;7.518;2023-04-03T07:02:42;8.70;97.50
38941;DHT22;43236;47.208;7.518;2023-04-03T07:05:29;8.70;98.00
38941;DHT22;43236;47.208;7.518;2023-04-03T07:08:18;8.70;97.80
38941;DHT22;43236;47.208;7.518;2023-04-03T07:11:06;8.70;97.60
38941;DHT22;43236;47.208;7.518;2023-04-03T07:13:53;8.70;97.20
38941;DHT22;43236;47.208;7.518;2023-04-03T07:16:40;8.80;97.70
38941;DHT22;43236;47.208;7.518;2023-04-03T07:19:27;8.80;97.70
38941;DHT22;43236;47.208;7.518;2023-04-03T07:22:14;8.80;96.90
38941;DHT22;43236;47.208;7.518;2023-04-03T07:25:04;8.80;96.70
38941;DHT22;43236;47.208;7.518;2023-04-03T07:27:52;8.80;96.50
38941;DHT22;43236;47.208;7.518;2023-04-03T07:30:44;8.80;96.00
38941;DHT22;43236;47.208;7.518;2023-04-03T07:33:31;8.80;95.80
38941;DHT22;43236;47.208;7.518;2023-04-03T07:36:21;8.80;95.40
38941;DHT22;43236;47.208;7.518;2023-04-03T07:39:08;8.80;94.70
38941;DHT22;43236;47.208;7.518;2023-04-03T07:41:58;8.80;94.40
38941;DHT22;43236;47.208;7.518;2023-04-03T07:44:45;8.80;93.70
38941;DHT22;43236;47.208;7.518;2023-04-03T07:47:33;8.80;93.90
38941;DHT22;43236;47.208;7.518;2023-04-03T07:50:20;8.80;93.80
38941;DHT22;43236;47.208;7.518;2023-04-03T07:53:07;8.90;93.00
38941;DHT22;43236;47.208;7.518;2023-04-03T07:55:55;8.80;92.20
38941;DHT22;43236;47.208;7.518;2023-04-03T07:58:44;8.80;92.50
38941;DHT22;43236;47.208;7.518;2023-04-03T08:01:32;8.80;92.60
38941;DHT22;43236;47.208;7.518;2023-04-03T08:04:19;8.80;91.60
38941;DHT22;43236;47.208;7.518;2023-04-03T08:07:06;8.90;91.60
38941;DHT22;43236;47.208;7.518;2023-04-03T08:09:53;8.90;91.80
38941;DHT22;43236;47.208;7.518;2023-04-03T08:12:40;9.10;91.40
38941;DHT22;43236;47.208;7.518;2023-04-03T08:15:29;9.20;90.60
38941;DHT22;43236;47.208;7.518;2023-04-03T08:18:17;9.20;90.20
38941;DHT22;43236;47.208;7.518;2023-04-03T08:21:06;9.20;89.30
38941;DHT22;43236;47.208;7.518;2023-04-03T08:23:54;9.20;88.70
38941;DHT22;43236;47.208;7.518;2023-04-03T08:26:42;9.30;89.00
38941;DHT22;43236;47.208;7.518;2023-04-03T08:29:29;9.40;88.40
38941;DHT22;43236;47.208;7.518;2023-04-03T08:32:18;9.30;85.70
38941;DHT22;43236;47.208;7.518;2023-04-03T08:35:05;9.40;87.80
38941;DHT22;43236;47.208;7.518;2023-04-03T08:37:52;9.40;86.00
38941;DHT22;43236;47.208;7.518;2023-04-03T08:40:40;9.50;88.30
38941;DHT22;43236;47.208;7.518;2023-04-03T08:43:34;9.50;84.90
38941;DHT22;43236;47.208;7.518;2023-04-03T08:46:28;9.60;86.10
38941;DHT22;43236;47.208;7.518;2023-04-03T08:49:24;9.60;85.10
38941;DHT22;43236;47.208;7.518;2023-04-03T08:52:15;9.60;84.50
38941;DHT22;43236;47.208;7.518;2023-04-03T08:55:07;9.60;84.90
38941;DHT22;43236;47.208;7.518;2023-04-03T08:58:01;9.60;85.10
38941;DHT22;43236;47.208;7.518;2023-04-03T09:00:50;9.60;83.30
38941;DHT22;43236;47.208;7.518;2023-04-03T09:03:39;9.60;84.20
38941;DHT22;43236;47.208;7.518;2023-04-03T09:06:31;9.70;83.90
38941;DHT22;43236;47.208;7.518;2023-04-03T09:09:29;9.70;83.60
38941;DHT22;43236;47.208;7.518;2023-04-03T09:12:22;9.80;83.60
38941;DHT22;43236;47.208;7.518;2023-04-03T09:15:17;9.90;82.10
38941;DHT22;43236;47.208;7.518;2023-04-03T09:18:11;9.80;80.70
38941;DHT22;43236;47.208;7.518;2023-04-03T09:21:04;9.70;80.00
38941;DHT22;43236;47.208;7.518;2023-04-03T09:23:59;9.80;80.10
38941;DHT22;43236;47.208;7.518;2023-04-03T09:26:52;9.70;81.40
38941;DHT22;43236;47.208;7.518;2023-04-03T09:29:42;9.70;79.90
38941;DHT22;43236;47.208;7.518;2023-04-03T09:32:33;9.70;80.40
38941;DHT22;43236;47.208;7.518;2023-04-03T09:35:23;9.70;80.20
38941;DHT22;43236;47.208;7.518;2023-04-03T09:38:17;9.80;79.70
38941;DHT22;43236;47.208;7.518;2023-04-03T09:41:11;9.80;79.40
38941;DHT22;43236;47.208;7.518;2023-04-03T09:44:00;9.80;78.50
38941;DHT22;43236;47.208;7.518;2023-04-03T09:46:48;9.70;78.50
38941;DHT22;43236;47.208;7.518;2023-04-03T09:49:35;9.70;78.20
38941;DHT22;43236;47.208;7.518;2023-04-03T09:52:24;9.80;78.90
38941;DHT22;43236;47.208;7.518;2023-04-03T09:55:15;9.90;78.50
38941;DHT22;43236;47.208;7.518;2023-04-03T09:58:23;9.90;78.20
38941;DHT22;43236;47.208;7.518;2023-04-03T10:01:23;10.00;77.10
38941;DHT22;43236;47.208;7.518;2023-04-03T10:04:13;10.20;77.10
38941;DHT22;43236;47.208;7.518;2023-04-03T10:07:00;10.30;76.00
38941;DHT22;43236;47.208;7.518;2023-04-03T10:09:55;10.30;75.70
38941;DHT22;43236;47.208;7.518;2023-04-03T10:12:42;10.40;76.10
38941;DHT22;43236;47.208;7.518;2023-04-03T10:15:36;10.50;76.80
38941;DHT22;43236;47.208;7.518;2023-04-03T10:18:31;10.70;75.20
38941;DHT22;43236;47.208;7.518;2023-04-03T10:21:28;10.80;75.00
38941;DHT22;43236;47.208;7.518;2023-04-03T10:24:21;10.90;73.90
38941;DHT22;43236;47.208;7.518;2023-04-03T10:27:10;10.90;72.90
38941;DHT22;43236;47.208;7.518;2023-04-03T10:30:04;10.90;72.80
38941;DHT22;43236;47.208;7.518;2023-04-03T10:33:07;10.90;73.60
38941;DHT22;43236;47.208;7.518;2023-04-03T10:36:06;10.70;72.70
38941;DHT22;43236;47.208;7.518;2023-04-03T10:39:02;10.50;72.50
38941;DHT22;43236;47.208;7.518;2023-04-03T10:41:59;10.30;72.70
38941;DHT22;43236;47.208;7.518;2023-04-03T10:45:00;10.20;73.60
38941;DHT22;43236;47.208;7.518;2023-04-03T10:47:58;10.10;75.10
38941;DHT22;43236;47.208;7.518;2023-04-03T10:50:54;10.10;75.30
38941;DHT22;43236;47.208;7.518;2023-04-03T10:53:48;10.20;74.70
38941;DHT22;43236;47.208;7.518;2023-04-03T10:56:41;10.20;74.80
38941;DHT22;43236;47.208;7.518;2023-04-03T10:59:32;10.20;75.30
38941;DHT22;43236;47.208;7.518;2023-04-03T11:02:24;10.30;74.80
38941;DHT22;43236;47.208;7.518;2023-04-03T11:05:17;10.40;74.30
38941;DHT22;43236;47.208;7.518;2023-04-03T11:08:13;10.40;74.80
38941;DHT22;43236;47.208;7.518;2023-04-03T11:11:04;10.40;72.90
38941;DHT22;43236;47.208;7.518;2023-04-03T11:13:56;10.50;74.40
38941;DHT22;43236;47.208;7.518;2023-04-03T11:16:48;10.50;73.50
38941;DHT22;43236;47.208;7.518;2023-04-03T11:19:41;10.60;74.00
38941;DHT22;43236;47.208;7.518;2023-04-03T11:22:32;10.70;72.50
38941;DHT22;43236;47.208;7.518;2023-04-03T11:25:23;10.70;72.10
38941;DHT22;43236;47.208;7.518;2023-04-03T11:28:13;10.70;72.80
38941;DHT22;43236;47.208;7.518;2023-04-03T11:31:13;10.60;71.80
38941;DHT22;43236;47.208;7.518;2023-04-03T11:34:13;10.70;72.20
38941;DHT22;43236;47.208;7.518;2023-04-03T11:37:05;10.60;71.70
38941;DHT22;43236;47.208;7.518;2023-04-03T11:39:59;10.80;72.20
38941;DHT22;43236;47.208;7.518;2023-04-03T11:42:52;10.90;71.90
38941;DHT22;43236;47.208;7.518;2023-04-03T11:45:50;10.90;70.40
38941;DHT22;43236;47.208;7.518;2023-04-03T11:48:52;10.80;71.10
38941;DHT22;43236;47.208;7.518;2023-04-03T11:51:42;10.70;71.90
38941;DHT22;43236;47.208;7.518;2023-04-03T11:54:47;10.70;71.20
38941;DHT22;43236;47.208;7.518;2023-04-03T11:58:10;10.70;71.40
38941;DHT22;43236;47.208;7.518;2023-04-03T12:01:07;10.80;71.70
38941;DHT22;43236;47.208;7.518;2023-04-03T12:04:06;10.70;70.60
38941;DHT22;43236;47.208;7.518;2023-04-03T12:07:14;10.70;69.90
38941;DHT22;43236;47.208;7.518;2023-04-03T12:10:15;10.70;70.20
38941;DHT22;43236;47.208;7.518;2023-04-03T12:13:15;10.70;69.90
38941;DHT22;43236;47.208;7.518;2023-04-03T12:16:03;10.60;68.50
38941;DHT22;43236;47.208;7.518;2023-04-03T12:18:59;10.60;69.50
38941;DHT22;43236;47.208;7.518;2023-04-03T12:22:09;10.60;70.40
38941;DHT22;43236;47.208;7.518;2023-04-03T12:24:56;10.60;70.70
38941;DHT22;43236;47.208;7.518;2023-04-03T12:27:43;10.80;70.90
38941;DHT22;43236;47.208;7.518;2023-04-03T12:30:35;11.00;69.90
38941;DHT22;43236;47.208;7.518;2023-04-03T12:33:29;11.20;71.00
38941;DHT22;43236;47.208;7.518;2023-04-03T12:36:25;11.40;70.40
38941;DHT22;43236;47.208;7.518;2023-04-03T12:39:36;11.50;67.60
38941;DHT22;43236;47.208;7.518;2023-04-03T12:42:51;11.60;67.40
38941;DHT22;43236;47.208;7.518;2023-04-03T12:45:46;11.60;67.40
38941;DHT22;43236;47.208;7.518;2023-04-03T12:48:39;11.50;67.40
38941;DHT22;43236;47.208;7.518;2023-04-03T12:51:37;11.50;67.80
38941;DHT22;43236;47.208;7.518;2023-04-03T12:54:29;11.60;65.90
38941;DHT22;43236;47.208;7.518;2023-04-03T12:57:19;11.60;67.20
38941;DHT22;43236;47.208;7.518;2023-04-03T13:00:30;11.60;68.50
38941;DHT22;43236;47.208;7.518;2023-04-03T13:03:24;11.70;67.30
38941;DHT22;43236;47.208;7.518;2023-04-03T13:06:18;11.70;66.80
38941;DHT22;43236;47.208;7.518;2023-04-03T13:09:06;11.40;65.60
38941;DHT22;43236;47.208;7.518;2023-04-03T13:12:11;11.30;67.20
38941;DHT22;43236;47.208;7.518;2023-04-03T13:15:01;11.30;68.00
38941;DHT22;43236;47.208;7.518;2023-04-03T13:17:50;11.30;66.90
38941;DHT22;43236;47.208;7.518;2023-04-03T13:20:39;11.40;66.30
38941;DHT22;43236;47.208;7.518;2023-04-03T13:23:26;11.60;67.10
38941;DHT22;43236;47.208;7.518;2023-04-03T13:26:15;11.60;64.40
38941;DHT22;43236;47.208;7.518;2023-04-03T13:29:06;11.80;65.30
38941;DHT22;43236;47.208;7.518;2023-04-03T13:31:53;11.90;66.40
38941;DHT22;43236;47.208;7.518;2023-04-03T13:34:43;12.20;65.70
38941;DHT22;43236;47.208;7.518;2023-04-03T13:37:33;12.20;64.50
38941;DHT22;43236;47.208;7.518;2023-04-03T13:40:20;12.10;64.00
38941;DHT22;43236;47.208;7.518;2023-04-03T13:43:18;12.10;63.90
38941;DHT22;43236;47.208;7.518;2023-04-03T13:46:22;12.00;65.20
38941;DHT22;43236;47.208;7.518;2023-04-03T13:49:19;12.10;65.60
38941;DHT22;43236;47.208;7.518;2023-04-03T13:52:22;12.10;65.60
38941;DHT22;43236;47.208;7.518;2023-04-03T13:55:24;12.10;65.30
38941;DHT22;43236;47.208;7.518;2023-04-03T13:58:22;12.10;66.30
38941;DHT22;43236;47.208;7.518;2023-04-03T14:01:18;12.10;64.40
38941;DHT22;43236;47.208;7.518;2023-04-03T14:04:13;12.10;65.40
38941;DHT22;43236;47.208;7.518;2023-04-03T14:07:01;12.10;65.50
38941;DHT22;43236;47.208;7.518;2023-04-03T14:09:48;12.10;66.40
38941;DHT22;43236;47.208;7.518;2023-04-03T14:12:38;12.10;64.60
38941;DHT22;43236;47.208;7.518;2023-04-03T14:15:27;12.00;63.70
38941;DHT22;43236;47.208;7.518;2023-04-03T14:18:16;11.80;63.80
38941;DHT22;43236;47.208;7.518;2023-04-03T14:21:04;11.80;65.00
38941;DHT22;43236;47.208;7.518;2023-04-03T14:23:51;11.70;65.70
38941;DHT22;43236;47.208;7.518;2023-04-03T14:26:38;11.70;66.80
38941;DHT22;43236;47.208;7.518;2023-04-03T14:29:26;11.60;65.10
38941;DHT22;43236;47.208;7.518;2023-04-03T14:32:15;11.60;65.50
38941;DHT22;43236;47.208;7.518;2023-04-03T14:35:03;11.60;66.50
38941;DHT22;43236;47.208;7.518;2023-04-03T14:37:51;11.60;65.00
38941;DHT22;43236;47.208;7.518;2023-04-03T14:40:39;11.50;63.70
38941;DHT22;43236;47.208;7.518;2023-04-03T14:43:26;11.50;65.10
38941;DHT22;43236;47.208;7.518;2023-04-03T14:46:17;11.60;65.30
38941;DHT22;43236;47.208;7.518;2023-04-03T14:49:10;11.50;64.60
38941;DHT22;43236;47.208;7.518;2023-04-03T14:51:59;11.60;65.80
38941;DHT22;43236;47.208;7.518;2023-04-03T14:54:47;11.70;66.30
38941;DHT22;43236;47.208;7.518;2023-04-03T14:57:34;11.70;66.10
38941;DHT22;43236;47.208;7.518;2023-04-03T15:00:22;11.60;65.40
38941;DHT22;43236;47.208;7.518;2023-04-03T15:03:14;11.60;67.10
38941;DHT22;43236;47.208;7.518;2023-04-03T15:06:02;11.60;67.10
38941;DHT22;43236;47.208;7.518;2023-04-03T15:08:49;11.50;67.70
38941;DHT22;43236;47.208;7.518;2023-04-03T15:11:36;11.40;67.40
38941;DHT22;43236;47.208;7.518;2023-04-03T15:14:23;11.30;65.50
38941;DHT22;43236;47.208;7.518;2023-04-03T15:17:15;11.10;66.30
38941;DHT22;43236;47.208;7.518;2023-04-03T15:20:12;11.20;66.90
38941;DHT22;43236;47.208;7.518;2023-04-03T15:23:00;11.10;66.50
38941;DHT22;43236;47.208;7.518;2023-04-03T15:25:48;11.10;66.40
38941;DHT22;43236;47.208;7.518;2023-04-03T15:28:37;11.10;66.20
38941;DHT22;43236;47.208;7.518;2023-04-03T15:31:25;11.10;66.80
38941;DHT22;43236;47.208;7.518;2023-04-03T15:34:12;11.20;67.10
38941;DHT22;43236;47.208;7.518;2023-04-03T15:37:01;11.10;66.90
38941;DHT22;43236;47.208;7.518;2023-04-03T15:39:48;11.10;67.80
38941;DHT22;43236;47.208;7.518;2023-04-03T15:42:35;11.00;68.00
38941;DHT22;43236;47.208;7.518;2023-04-03T15:45:22;10.80;68.10
38941;DHT22;43236;47.208;7.518;2023-04-03T15:48:10;10.80;69.50
38941;DHT22;43236;47.208;7.518;2023-04-03T15:50:57;10.70;69.40
38941;DHT22;43236;47.208;7.518;2023-04-03T15:53:45;10.70;69.60
38941;DHT22;43236;47.208;7.518;2023-04-03T15:56:32;10.70;68.70
38941;DHT22;43236;47.208;7.518;2023-04-03T15:59:19;10.80;68.30
38941;DHT22;43236;47.208;7.518;2023-04-03T16:02:08;10.70;68.00
38941;DHT22;43236;47.208;7.518;2023-04-03T16:04:59;10.70;68.60
38941;DHT22;43236;47.208;7.518;2023-04-03T16:07:46;10.70;67.90
38941;DHT22;43236;47.208;7.518;2023-04-03T16:10:35;10.70;68.90
38941;DHT22;43236;47.208;7.518;2023-04-03T16:13:22;10.80;70.10
38941;DHT22;43236;47.208;7.518;2023-04-03T16:16:09;10.80;69.50
38941;DHT22;43236;47.208;7.518;2023-04-03T16:18:56;10.90;68.50
38941;DHT22;43236;47.208;7.518;2023-04-03T16:21:44;10.80;68.70
38941;DHT22;43236;47.208;7.518;2023-04-03T16:24:32;10.70;68.00
38941;DHT22;43236;47.208;7.518;2023-04-03T16:27:21;10.70;67.70
38941;DHT22;43236;47.208;7.518;2023-04-03T16:30:14;10.60;67.90
38941;DHT22;43236;47.208;7.518;2023-04-03T16:33:02;10.60;68.10
38941;DHT22;43236;47.208;7.518;2023-04-03T16:35:49;10.70;68.90
38941;DHT22;43236;47.208;7.518;2023-04-03T16:38:37;10.70;68.90
38941;DHT22;43236;47.208;7.518;2023-04-03T16:41:24;10.60;68.30
38941;DHT22;43236;47.208;7.518;2023-04-03T16:44:13;10.50;67.40
38941;DHT22;43236;47.208;7.518;2023-04-03T16:47:00;10.50;68.10
38941;DHT22;43236;47.208;7.518;2023-04-03T16:49:47;10.40;68.90
38941;DHT22;43236;47.208;7.518;2023-04-03T16:52:34;10.50;69.30
38941;DHT22;43236;47.208;7.518;2023-04-03T16:55:21;10.50;69.00
38941;DHT22;43236;47.208;7.518;2023-04-03T16:58:08;10.50;69.10
38941;DHT22;43236;47.208;7.518;2023-04-03T17:00:57;10.50;69.00
38941;DHT22;43236;47.208;7.518;2023-04-03T17:03:44;10.40;67.90
38941;DHT22;43236;47.208;7.518;2023-04-03T17:06:31;10.40;69.20
38941;DHT22;43236;47.208;7.518;2023-04-03T17:09:18;10.30;67.40
38941;DHT22;43236;47.208;7.518;2023-04-03T17:12:06;10.30;68.00
38941;DHT22;43236;47.208;7.518;2023-04-03T17:14:53;10.20;67.80
38941;DHT22;43236;47.208;7.518;2023-04-03T17:17:42;10.20;67.70
38941;DHT22;43236;47.208;7.518;2023-04-03T17:20:29;10.20;67.50
38941;DHT22;43236;47.208;7.518;2023-04-03T17:23:19;10.20;67.10
38941;DHT22;43236;47.208;7.518;2023-04-03T17:26:06;10.20;68.00
38941;DHT22;43236;47.208;7.518;2023-04-03T17:28:54;10.20;67.50
38941;DHT22;43236;47.208;7.518;2023-04-03T17:31:42;10.10;68.10
38941;DHT22;43236;47.208;7.518;2023-04-03T17:34:30;10.10;68.40
38941;DHT22;43236;47.208;7.518;2023-04-03T17:37:18;10.10;68.50
38941;DHT22;43236;47.208;7.518;2023-04-03T17:40:06;10.10;67.70
38941;DHT22;43236;47.208;7.518;2023-04-03T17:42:53;9.80;68.50
38941;DHT22;43236;47.208;7.518;2023-04-03T17:45:40;10.00;68.40
38941;DHT22;43236;47.208;7.518;2023-04-03T17:48:27;9.90;68.30
38941;DHT22;43236;47.208;7.518;2023-04-03T17:51:17;9.90;69.80
38941;DHT22;43236;47.208;7.518;2023-04-03T17:54:05;9.90;69.90
38941;DHT22;43236;47.208;7.518;2023-04-03T17:56:52;9.80;70.40
38941;DHT22;43236;47.208;7.518;2023-04-03T17:59:39;9.70;69.90
38941;DHT22;43236;47.208;7.518;2023-04-03T18:02:26;9.70;70.00
38941;DHT22;43236;47.208;7.518;2023-04-03T18:05:14;9.70;69.20